Observations de surface / France / LFBZ

Québec | Canada | États-Unis | France | UK | Europe | Ailleurs

Affichage: Infos & localisation pour LFBZ | Aide pour décoder les METARs

LFBZ BIARRITZ/ANGLET -- FR
Raw surface observations for station LFBZ
LFBZ 211700Z AUTO 08003KT CAVOK 07/02 Q1021 NOSIG=
LFBZ 211630Z AUTO 02003KT CAVOK 08/02 Q1020 NOSIG=
LFBZ 211600Z AUTO VRB02KT CAVOK 09/02 Q1020 NOSIG=
LFBZ 211530Z AUTO VRB03KT CAVOK 09/02 Q1020 NOSIG=
LFBZ 211500Z AUTO VRB03KT CAVOK 09/02 Q1020 NOSIG=
LFBZ 211430Z AUTO 00000KT CAVOK 10/01 Q1020 NOSIG=
LFBZ 211400Z AUTO VRB03KT CAVOK 09/00 Q1020 NOSIG=
LFBZ 211330Z AUTO 36003KT 320V070 CAVOK 09/00 Q1020 NOSIG=
LFBZ 211300Z AUTO 01003KT 330V040 CAVOK 08/00 Q1021 NOSIG=
LFBZ 211230Z AUTO VRB02KT CAVOK 08/01 Q1021 NOSIG=
LFBZ 211200Z AUTO 06003KT 030V110 CAVOK 07/01 Q1021 NOSIG=
LFBZ 211130Z AUTO 07004KT CAVOK 07/01 Q1022 NOSIG=
LFBZ 211100Z AUTO VRB02KT CAVOK 08/00 Q1022 NOSIG=
LFBZ 211030Z AUTO VRB02KT CAVOK 07/00 Q1022 NOSIG=
LFBZ 211000Z AUTO 00000KT CAVOK 06/M00 Q1022 NOSIG=
LFBZ 210930Z AUTO VRB01KT CAVOK 04/00 Q1022 NOSIG=
LFBZ 210900Z AUTO 16005KT CAVOK 02/M01 Q1022 NOSIG=
LFBZ 210830Z AUTO 12003KT 9000 NSC M01/M02 Q1022 NOSIG=
LFBZ 210800Z AUTO 09004KT 060V120 6000 NSC M03/M04 Q1021 NOSIG=
LFBZ 210730Z AUTO 10003KT 4600 BR NSC M03/M04 Q1022 BECMG 9999 NSW=
LFBZ 210700Z AUTO 05004KT 6000 NSC M02/M03 Q1021 TEMPO 4000 BR=
LFBZ 210630Z AUTO 10003KT 060V160 8000 NSC M03/M04 Q1021 TEMPO 4000 BR=
LFBZ 210600Z AUTO 16007KT CAVOK M02/M03 Q1021 TEMPO 4000 BR=
LFBZ 210530Z AUTO 15005KT 7000 NSC M03/M04 Q1021 TEMPO 4000 BR=
LFBZ 210500Z AUTO 16003KT 140V200 7000 NSC M03/M04 Q1021 TEMPO 4000 BR=
LFBZ 210430Z AUTO 15004KT 110V170 CAVOK M02/M03 Q1021 TEMPO 4000 BR=
LFBZ 210400Z AUTO 16004KT 8000 NSC M03/M03 Q1022 TEMPO 4000 BR=
LFBZ 210330Z AUTO 15003KT 120V190 5000 BR NSC M02/M03 Q1022 NOSIG=
LFBZ 210300Z AUTO 11003KT 4900 BR NSC M03/M03 Q1022 NOSIG=
LFBZ 210230Z AUTO 08003KT 5000 BR NSC M02/M03 Q1022 NOSIG=
LFBZ 210200Z AUTO 08002KT 6000 NSC M02/M03 Q1022 TEMPO 4000 BR=
LFBZ 210130Z AUTO 15003KT 5000 BR NSC M02/M03 Q1022 NOSIG=
LFBZ 210100Z AUTO 11003KT 090V150 7000 NSC M01/M02 Q1022 TEMPO 4000 BR=
LFBZ 210030Z AUTO 17003KT 8000 NSC M00/M02 Q1022 TEMPO 4000 BR=
LFBZ 210000Z AUTO 17003KT 7000 NSC M00/M02 Q1022 TEMPO 4000 BR=
LFBZ 202330Z AUTO 18003KT 8000 NSC M00/M02 Q1023 TEMPO 4000 BR=
LFBZ 202300Z AUTO VRB02KT 6000 NSC M00/M02 Q1023 NOSIG=
LFBZ 202230Z AUTO 13003KT 090V160 6000 NSC M00/M03 Q1023 NOSIG=
LFBZ 202200Z AUTO 10003KT 8000 NSC 01/M03 Q1023 NOSIG=
LFBZ 202130Z AUTO 10002KT 8000 NSC 01/M02 Q1023 NOSIG=
LFBZ 202100Z AUTO 13002KT 8000 NSC 01/M02 Q1023 NOSIG=
LFBZ 202030Z AUTO 13004KT 8000 NSC 01/M02 Q1023 NOSIG=
LFBZ 202000Z AUTO 07005KT 8000 NSC 01/M02 Q1023 NOSIG=
LFBZ 201930Z AUTO 11004KT 8000 NSC 01/M02 Q1023 NOSIG=
LFBZ 201900Z AUTO 16003KT 8000 NSC 01/M02 Q1023 NOSIG=
LFBZ 201830Z AUTO 12003KT 9000 NSC 02/M02 Q1023 NOSIG=
LFBZ 201800Z AUTO 08006KT 9000 NSC 02/M02 Q1023 NOSIG=
LFBZ 201730Z AUTO 07005KT CAVOK 03/M02 Q1023 NOSIG=
LFBZ 201700Z AUTO 08005KT CAVOK 03/M02 Q1023 NOSIG=